Time;durP1;ratioP1;P1;durP2;ratioP2;P2;SDS_P1;SDS_P2;PMS_P1;PMS_P2;Temp;Humidity;BMP_temperature;BMP_pressure;BME280_temperature;BME280_humidity;BME280_pressure;Samples;Min_cycle;Max_cycle;Signal;HPM_P1;HPM_P2
2022/05/30 00:00:23;;;;;;;5.65;2.85;;;;;;;8.51;69.71;99217.94;5054600;28;20532;-65
2022/05/30 00:02:49;;;;;;;9.00;3.00;;;;;;;8.51;70.01;99225.88;5036141;28;20498;-66
2022/05/30 00:05:17;;;;;;;2.85;2.42;;;;;;;8.52;69.21;99218.75;5054703;28;20418;-64
2022/05/30 00:07:42;;;;;;;4.28;2.60;;;;;;;8.51;70.06;99219.78;5054163;28;20130;-67
2022/05/30 00:10:09;;;;;;;5.57;2.97;;;;;;;8.47;70.19;99222.09;5053692;28;20521;-66
2022/05/30 00:12:36;;;;;;;4.30;2.50;;;;;;;8.46;70.34;99214.38;5036502;28;20418;-66
2022/05/30 00:15:03;;;;;;;5.78;3.03;;;;;;;8.43;70.39;99212.19;5054431;28;20118;-66
2022/05/30 00:17:30;;;;;;;6.10;3.17;;;;;;;8.35;71.27;99208.84;5054357;28;20123;-66
2022/05/30 00:19:55;;;;;;;4.00;3.03;;;;;;;8.32;71.29;99221.66;5054148;28;20498;-66
2022/05/30 00:22:21;;;;;;;5.07;3.38;;;;;;;8.23;71.39;99212.47;5054340;28;20045;-66
2022/05/30 00:24:47;;;;;;;5.68;3.33;;;;;;;8.20;72.37;99225.06;5054353;28;20045;-66
2022/05/30 00:27:12;;;;;;;6.03;3.15;;;;;;;8.14;72.40;99225.97;5054337;28;20533;-66
2022/05/30 00:29:39;;;;;;;5.75;3.40;;;;;;;8.05;72.68;99224.69;5053789;28;20043;-66
2022/05/30 00:32:06;;;;;;;10.13;3.65;;;;;;;8.02;72.86;99222.50;5035854;28;20094;-65
2022/05/30 00:34:32;;;;;;;4.93;3.17;;;;;;;8.03;73.02;99232.03;5036283;28;20044;-66
2022/05/30 00:36:58;;;;;;;5.60;3.17;;;;;;;7.99;73.50;99236.16;5054025;28;20040;-66
2022/05/30 00:39:23;;;;;;;6.50;3.60;;;;;;;7.94;73.55;99231.56;5053292;28;20514;-66
2022/05/30 00:41:49;;;;;;;7.18;3.70;;;;;;;7.92;73.03;99232.81;5053831;28;20129;-66
2022/05/30 00:44:15;;;;;;;7.43;3.50;;;;;;;7.91;73.51;99244.38;5053661;28;20048;-66
2022/05/30 00:46:40;;;;;;;5.55;3.38;;;;;;;7.90;73.50;99248.03;5036091;28;20051;-66
2022/05/30 00:49:11;;;;;;;5.22;3.33;;;;;;;7.90;73.33;99251.50;5053307;28;20456;-64
2022/05/30 00:51:44;;;;;;;4.68;3.10;;;;;;;7.91;73.50;99250.47;5053744;28;20041;-66
2022/05/30 00:54:15;;;;;;;4.30;3.10;;;;;;;7.92;73.32;99246.00;5019457;28;20068;-66
2022/05/30 00:56:44;;;;;;;4.93;3.30;;;;;;;7.92;73.60;99248.63;5053880;28;20044;-66
2022/05/30 00:59:10;;;;;;;4.35;3.35;;;;;;;7.96;73.70;99250.59;5052656;28;20379;-66
2022/05/30 01:01:37;;;;;;;4.45;3.15;;;;;;;8.09;72.82;99248.78;5018928;28;20053;-65
2022/05/30 01:06:51;;;;;;;11.35;3.83;;;;;;;8.52;71.55;99256.53;5053399;28;20128;-65
2022/05/30 01:09:27;;;;;;;6.80;3.90;;;;;;;8.72;70.84;99256.22;5035716;28;20040;-66
2022/05/30 01:12:11;;;;;;;5.05;3.50;;;;;;;9.01;69.57;99265.09;5035621;28;20482;-65
2022/05/30 01:14:42;;;;;;;6.00;3.10;;;;;;;9.27;68.73;99257.72;5035249;28;20045;-66
2022/05/30 01:17:15;;;;;;;4.38;2.97;;;;;;;9.60;67.75;99267.69;5034921;28;20041;-65
2022/05/30 01:19:41;;;;;;;3.70;3.08;;;;;;;9.88;66.57;99264.28;5034912;28;20045;-66
2022/05/30 01:22:35;;;;;;;5.90;3.45;;;;;;;10.26;64.82;99262.81;5035333;28;20049;-65
2022/05/30 01:25:20;;;;;;;4.60;3.00;;;;;;;10.64;63.09;99256.06;5018708;28;20462;-65
2022/05/30 01:28:21;;;;;;;6.65;2.90;;;;;;;11.06;62.33;99261.78;5032626;28;20509;-66
2022/05/30 01:30:49;;;;;;;6.75;3.97;;;;;;;11.49;61.31;99264.72;4998806;28;20499;-66
2022/05/30 01:33:15;;;;;;;6.10;3.20;;;;;;;11.85;60.09;99268.63;5015357;28;20119;-66
2022/05/30 01:35:41;;;;;;;4.97;3.25;;;;;;;12.19;58.32;99266.63;5015039;28;20517;-66
2022/05/30 01:38:12;;;;;;;6.88;3.70;;;;;;;12.54;57.50;99277.84;5045523;28;20045;-65
2022/05/30 01:40:38;;;;;;;6.68;3.50;;;;;;;12.85;56.61;99274.38;5018706;28;20045;-66
2022/05/30 01:43:05;;;;;;;7.75;3.03;;;;;;;13.12;55.56;99271.66;5034927;28;20041;-66
2022/05/30 01:45:33;;;;;;;4.68;3.03;;;;;;;13.35;54.90;99281.13;5034806;28;20069;-66
2022/05/30 01:47:59;;;;;;;6.32;2.97;;;;;;;13.52;54.42;99280.94;5034748;28;20575;-66
2022/05/30 01:50:27;;;;;;;4.80;3.22;;;;;;;13.82;53.50;99288.28;5018064;28;20068;-65
2022/05/30 01:52:53;;;;;;;3.95;3.13;;;;;;;14.22;52.30;99292.09;5034388;28;20606;-66
2022/05/30 01:55:32;;;;;;;5.63;3.55;;;;;;;14.64;51.23;99288.44;5034409;28;20044;-65
2022/05/30 01:58:02;;;;;;;4.53;3.22;;;;;;;14.97;50.26;99291.63;5034116;28;20037;-66
2022/05/30 02:00:51;;;;;;;4.43;3.17;;;;;;;15.04;49.83;99294.84;5043578;28;20051;-66
2022/05/30 02:03:17;;;;;;;6.80;3.35;;;;;;;15.26;48.99;99296.41;5034434;28;20044;-65
2022/05/30 02:05:42;;;;;;;5.82;3.67;;;;;;;15.52;48.72;99300.63;5033988;28;20278;-66
2022/05/30 02:08:09;;;;;;;5.28;3.00;;;;;;;15.90;47.14;99301.06;5052495;28;20053;-66
2022/05/30 02:10:36;;;;;;;3.58;2.80;;;;;;;16.02;46.61;99306.06;5034070;28;20086;-65
2022/05/30 02:13:05;;;;;;;5.45;3.15;;;;;;;16.33;46.17;99320.09;5034192;28;20065;-66
2022/05/30 02:18:34;;;;;;;6.30;2.80;;;;;;;16.83;44.25;99314.69;5051362;28;20043;-66
2022/05/30 02:21:00;;;;;;;5.57;2.60;;;;;;;17.03;43.46;99325.25;5034073;28;20040;-67
2022/05/30 02:23:25;;;;;;;5.20;2.72;;;;;;;17.21;43.16;99318.38;5034283;28;20045;-66
2022/05/30 02:25:51;;;;;;;5.55;2.95;;;;;;;17.52;42.77;99321.53;5051768;28;20045;-67
2022/05/30 02:28:17;;;;;;;5.65;2.70;;;;;;;17.72;42.40;99328.56;5034189;28;20045;-66
2022/05/30 02:30:42;;;;;;;3.85;2.45;;;;;;;18.01;41.57;99330.41;5034026;28;20537;-68
2022/05/30 02:38:38;;;;;;;4.95;3.10;;;;;;;18.74;40.20;99331.81;5013889;28;20045;-66
2022/05/30 02:41:24;;;;;;;8.10;3.53;;;;;;;18.76;39.82;99337.69;5020753;28;20108;-67
2022/05/30 02:43:57;;;;;;;5.18;2.92;;;;;;;18.72;39.36;99334.75;5030427;28;20046;-66
2022/05/30 02:46:23;;;;;;;4.10;2.70;;;;;;;18.80;39.43;99347.56;5014152;28;20049;-66
2022/05/30 02:48:50;;;;;;;5.72;4.30;;;;;;;18.96;38.85;99340.03;5014494;28;20090;-67
2022/05/30 02:51:16;;;;;;;6.32;2.80;;;;;;;19.22;38.20;99336.94;5013970;28;20053;-66
2022/05/30 02:53:43;;;;;;;5.63;3.00;;;;;;;19.28;38.10;99339.22;5014193;28;20503;-66
2022/05/30 02:56:29;;;;;;;5.35;3.22;;;;;;;19.49;38.08;99347.72;5035479;28;20053;-66
2022/05/30 02:58:57;;;;;;;6.85;3.20;;;;;;;19.74;37.43;99351.84;5032927;28;20041;-67
2022/05/30 03:01:23;;;;;;;4.03;2.40;;;;;;;19.84;36.83;99344.69;5033316;28;20041;-67
2022/05/30 03:03:51;;;;;;;10.23;4.30;;;;;;;19.84;36.98;99356.22;5033359;28;20041;-65
2022/05/30 03:06:17;;;;;;;5.72;3.63;;;;;;;19.86;36.74;99364.00;5033506;28;20542;-66
2022/05/30 03:08:43;;;;;;;7.13;3.50;;;;;;;19.92;36.68;99365.50;5050776;28;20457;-66
2022/05/30 03:11:10;;;;;;;8.05;3.28;;;;;;;20.13;36.58;99373.94;5051297;28;20037;-67
2022/05/30 03:13:37;;;;;;;6.55;3.40;;;;;;;20.06;37.01;99374.38;5032983;28;20506;-67
2022/05/30 03:16:03;;;;;;;4.45;3.08;;;;;;;20.22;36.00;99374.03;5032750;28;20498;-67
2022/05/30 03:18:30;;;;;;;7.15;2.80;;;;;;;20.11;36.08;99376.94;5033167;28;20576;-66
2022/05/30 03:20:57;;;;;;;2.72;2.30;;;;;;;19.93;36.53;99375.16;5033477;28;20048;-66
2022/05/30 03:23:23;;;;;;;6.75;4.40;;;;;;;20.19;36.14;99380.81;5037366;28;20512;-65
2022/05/30 03:26:11;;;;;;;3.65;3.20;;;;;;;20.31;36.02;99383.00;5020476;28;20037;-66
2022/05/30 03:28:38;;;;;;;8.38;4.47;;;;;;;20.39;36.33;99379.59;5037258;28;20037;-66
2022/05/30 03:31:07;;;;;;;8.00;3.75;;;;;;;20.50;35.66;99391.75;5037183;28;20052;-66
2022/05/30 03:33:36;;;;;;;5.90;2.60;;;;;;;20.61;35.58;99387.72;5037506;28;20068;-65
2022/05/30 03:36:02;;;;;;;5.63;2.88;;;;;;;20.71;35.18;99394.00;5036418;28;20072;-67
2022/05/30 03:38:46;;;;;;;5.28;2.95;;;;;;;20.69;35.44;99397.00;5055190;28;20456;-66
2022/05/30 03:41:30;;;;;;;6.78;3.03;;;;;;;20.59;35.55;99408.00;5055182;28;20074;-67
2022/05/30 03:44:06;;;;;;;6.88;2.75;;;;;;;20.60;35.92;99412.28;5037077;28;20524;-66
2022/05/30 03:46:32;;;;;;;5.13;2.55;;;;;;;20.61;35.67;99411.97;5054847;28;20083;-66
2022/05/30 03:48:59;;;;;;;4.68;2.65;;;;;;;20.63;36.00;99414.38;5037155;28;20080;-66
2022/05/30 03:51:25;;;;;;;4.00;2.70;;;;;;;20.69;35.71;99413.16;5054905;28;20454;-64
2022/05/30 03:53:52;;;;;;;6.18;3.83;;;;;;;20.75;35.85;99411.16;5036620;28;20094;-65
2022/05/30 03:56:19;;;;;;;7.35;3.15;;;;;;;20.63;35.51;99417.88;5036300;28;20041;-65
2022/05/30 03:58:45;;;;;;;4.55;2.95;;;;;;;20.43;36.47;99415.56;5036632;28;20045;-66
2022/05/30 04:01:11;;;;;;;5.70;2.85;;;;;;;20.39;36.97;99423.47;5036554;28;20048;-65
2022/05/30 04:03:39;;;;;;;5.07;2.55;;;;;;;20.47;36.18;99431.91;5054333;28;20132;-65
2022/05/30 04:06:06;;;;;;;4.85;2.80;;;;;;;20.58;35.93;99428.72;5036039;28;20045;-65
2022/05/30 04:08:32;;;;;;;5.78;3.35;;;;;;;20.70;36.12;99430.91;5036342;28;20061;-65
2022/05/30 04:11:20;;;;;;;6.38;3.20;;;;;;;20.74;36.41;99425.72;5053570;28;20099;-66
2022/05/30 04:14:01;;;;;;;9.13;2.67;;;;;;;20.73;36.20;99434.88;5054393;28;20060;-66
2022/05/30 04:16:57;;;;;;;4.47;2.85;;;;;;;20.90;36.29;99434.25;5035763;28;20055;-64
2022/05/30 04:19:23;;;;;;;8.32;3.10;;;;;;;20.99;36.21;99435.91;5036417;28;20494;-66
2022/05/30 04:21:48;;;;;;;4.07;2.50;;;;;;;21.03;35.76;99444.16;5036321;28;20111;-66
2022/05/30 04:24:21;;;;;;;5.40;2.47;;;;;;;20.96;35.52;99443.81;5036149;28;20043;-66
2022/05/30 04:26:53;;;;;;;5.20;2.30;;;;;;;21.08;35.50;99447.53;5020611;28;20501;-66
2022/05/30 04:29:19;;;;;;;5.05;2.50;;;;;;;21.29;35.43;99452.44;5036509;28;20048;-66
2022/05/30 04:32:04;;;;;;;6.03;3.70;;;;;;;21.46;35.21;99458.00;5053475;28;20106;-66
2022/05/30 04:34:32;;;;;;;9.43;4.00;;;;;;;21.43;35.28;99458.59;5019675;28;20490;-66
2022/05/30 04:36:58;;;;;;;8.52;3.47;;;;;;;21.42;35.32;99459.72;5035704;28;20045;-66
2022/05/30 04:39:24;;;;;;;6.00;2.63;;;;;;;21.48;34.77;99463.09;5036003;28;20525;-65
2022/05/30 04:42:09;;;;;;;5.80;2.28;;;;;;;21.67;34.93;99468.28;5053957;28;20041;-66
2022/05/30 04:44:44;;;;;;;4.63;2.47;;;;;;;21.86;34.41;99471.56;5053697;28;20045;-65
2022/05/30 04:47:35;;;;;;;2.85;2.53;;;;;;;21.96;34.57;99481.28;5045506;28;20057;-66
2022/05/30 04:50:13;;;;;;;4.22;2.75;;;;;;;21.88;34.70;99472.03;5036018;28;20037;-65
2022/05/30 04:52:41;;;;;;;3.72;2.60;;;;;;;21.67;35.13;99463.66;5035771;28;20041;-66
2022/05/30 04:55:26;;;;;;;12.10;7.57;;;;;;;21.77;34.98;99459.94;5052763;28;20044;-66
2022/05/30 04:57:56;;;;;;;5.75;2.47;;;;;;;21.66;35.57;99461.28;5035288;28;20044;-66
2022/05/30 05:00:40;;;;;;;9.35;2.20;;;;;;;21.45;35.25;99453.72;5053274;28;20048;-67
2022/05/30 05:03:08;;;;;;;6.68;2.55;;;;;;;21.31;35.33;99453.75;5034766;28;20048;-66
2022/05/30 05:05:35;;;;;;;4.75;1.95;;;;;;;21.15;35.42;99447.16;5035730;28;20076;-69
2022/05/30 05:08:16;;;;;;;11.73;2.55;;;;;;;20.84;36.42;99455.91;5052966;28;20087;-67
2022/05/30 05:11:17;;;;;;;18.40;7.63;;;;;;;20.71;36.33;99451.38;5052452;28;20044;-66
2022/05/30 05:14:01;;;;;;;7.57;3.63;;;;;;;20.62;36.67;99456.69;5050976;28;20122;-67
2022/05/30 05:16:45;;;;;;;3.58;2.00;;;;;;;20.46;36.71;99457.25;5050206;28;20413;-67
2022/05/30 05:19:11;;;;;;;4.78;2.20;;;;;;;20.23;36.87;99457.16;5032481;28;20056;-70
2022/05/30 05:21:39;;;;;;;6.65;2.22;;;;;;;20.09;37.18;99456.34;5032888;28;20045;-69
2022/05/30 05:24:07;;;;;;;12.10;2.78;;;;;;;19.93;37.43;99455.88;5033115;28;20048;-68
2022/05/30 05:26:52;;;;;;;4.88;1.95;;;;;;;19.78;37.44;99456.16;5051182;28;20067;-67
2022/05/30 05:29:20;;;;;;;5.88;2.17;;;;;;;19.50;38.25;99464.94;5032320;28;20039;-66
2022/05/30 05:31:46;;;;;;;3.80;1.88;;;;;;;19.32;38.84;99459.56;5050301;28;20055;-66
2022/05/30 05:34:14;;;;;;;3.97;1.95;;;;;;;19.12;38.88;99463.38;5032496;28;20300;-67
2022/05/30 05:36:47;;;;;;;5.78;2.00;;;;;;;19.02;38.81;99475.06;4996917;28;20095;-68
2022/05/30 05:39:15;;;;;;;3.22;1.48;;;;;;;18.96;38.94;99470.84;5012002;28;20107;-68
2022/05/30 05:41:47;;;;;;;4.20;1.60;;;;;;;18.92;38.94;99467.97;5013418;28;20457;-68
2022/05/30 05:44:14;;;;;;;2.95;1.73;;;;;;;18.86;38.85;99469.13;5020539;28;20068;-68
2022/05/30 05:46:41;;;;;;;4.47;1.60;;;;;;;18.77;37.91;99468.19;5031570;28;20041;-65
2022/05/30 05:49:09;;;;;;;3.97;1.60;;;;;;;18.61;39.55;99464.84;5021329;28;20084;-67
2022/05/30 05:51:36;;;;;;;7.72;2.20;;;;;;;18.48;39.87;99461.00;5011679;28;20054;-67
2022/05/30 05:54:06;;;;;;;;;;;;;;;18.51;40.02;99467.69;5029767;28;20537;-66
2022/05/30 05:56:32;;;;;;;1.95;1.80;;;;;;;18.48;40.67;99463.69;5032677;28;20402;-67
2022/05/30 05:58:59;;;;;;;5.22;2.00;;;;;;;18.46;40.74;99462.38;5030751;28;20564;-69
2022/05/30 06:01:31;;;;;;;4.93;2.22;;;;;;;18.42;40.82;99450.63;5031446;28;20164;-68
2022/05/30 06:04:00;;;;;;;6.47;2.00;;;;;;;18.43;40.34;99463.75;5014981;28;20036;-68
2022/05/30 06:06:49;;;;;;;6.30;2.00;;;;;;;18.46;39.91;99462.38;5010781;28;20053;-68
2022/05/30 06:09:24;;;;;;;3.53;1.90;;;;;;;18.42;39.15;99462.16;5047835;28;20044;-68
2022/05/30 06:11:53;;;;;;;7.28;2.35;;;;;;;18.41;39.63;99459.75;5031117;28;20048;-68
2022/05/30 06:14:19;;;;;;;3.80;2.30;;;;;;;18.34;39.18;99455.53;5031642;28;20434;-68
2022/05/30 06:16:48;;;;;;;4.13;2.83;;;;;;;18.33;39.24;99467.34;5032190;28;20056;-70
2022/05/30 06:19:17;;;;;;;2.42;1.80;;;;;;;18.38;39.10;99467.28;5032416;28;20517;-68
2022/05/30 06:21:43;;;;;;;4.97;1.65;;;;;;;18.37;39.70;99465.69;5050385;28;20079;-69
2022/05/30 06:24:10;;;;;;;4.85;2.25;;;;;;;18.33;39.78;99469.25;5033353;28;20036;-70
2022/05/30 06:27:02;;;;;;;5.78;1.90;;;;;;;18.26;40.28;99463.41;5032869;28;20057;-67
2022/05/30 06:29:34;;;;;;;2.35;1.77;;;;;;;18.25;41.21;99475.22;5031594;28;20040;-69
2022/05/30 06:32:01;;;;;;;1.88;1.63;;;;;;;18.07;39.29;99474.09;5031796;28;20490;-68
2022/05/30 06:34:32;;;;;;;3.33;1.90;;;;;;;18.11;39.37;99469.75;5015856;28;20052;-68
2022/05/30 06:36:59;;;;;;;2.22;1.65;;;;;;;18.12;39.41;99479.41;5014736;28;20041;-69
2022/05/30 06:39:27;;;;;;;2.50;2.10;;;;;;;18.11;39.95;99472.41;5014572;28;20572;-67
2022/05/30 06:42:00;;;;;;;10.05;4.22;;;;;;;18.20;39.29;99470.72;5033346;28;20049;-66
2022/05/30 06:44:26;;;;;;;4.25;2.50;;;;;;;18.24;38.73;99476.31;5032448;28;20033;-69
2022/05/30 06:47:10;;;;;;;6.13;2.58;;;;;;;18.30;38.74;99478.66;5051067;28;20068;-68
2022/05/30 06:49:54;;;;;;;3.03;1.60;;;;;;;18.47;38.32;99474.69;5021667;28;20052;-67
2022/05/30 06:52:24;;;;;;;6.93;3.17;;;;;;;18.55;37.68;99476.75;5031304;28;20041;-68
2022/05/30 06:54:50;;;;;;;7.72;2.10;;;;;;;18.69;37.58;99471.47;5050087;28;20068;-70
2022/05/30 07:00:03;;;;;;;5.32;2.20;;;;;;;18.81;36.64;99480.72;5031669;28;20044;-68
2022/05/30 07:02:30;;;;;;;4.80;1.80;;;;;;;18.87;36.81;99480.66;5031306;28;20092;-68
2022/05/30 07:05:15;;;;;;;2.55;1.50;;;;;;;18.95;36.47;99486.19;5049991;28;20047;-68
2022/05/30 07:07:59;;;;;;;1.80;1.52;;;;;;;18.93;36.08;99487.56;5033944;28;20041;-67
2022/05/30 07:10:27;;;;;;;4.75;1.90;;;;;;;18.90;36.21;99494.31;5049745;28;20045;-68
2022/05/30 07:12:59;;;;;;;3.72;1.70;;;;;;;18.93;36.00;99488.34;5016822;28;20087;-68
2022/05/30 07:15:26;;;;;;;2.92;1.90;;;;;;;18.88;36.97;99491.09;5032035;28;20456;-68
2022/05/30 07:17:52;;;;;;;3.17;1.90;;;;;;;18.96;36.73;99492.34;5049081;28;20053;-69
2022/05/30 07:20:19;;;;;;;5.85;1.88;;;;;;;19.11;36.56;99494.03;5030899;28;20041;-68
2022/05/30 07:23:14;;;;;;;4.20;1.90;;;;;;;19.31;36.20;99484.84;4993869;28;20054;-67
2022/05/30 07:26:00;;;;;;;2.15;1.63;;;;;;;19.39;35.83;99482.31;5049435;28;20127;-68
2022/05/30 07:28:44;;;;;;;2.70;1.70;;;;;;;19.44;35.40;99484.91;5033447;28;20063;-69
2022/05/30 07:31:29;;;;;;;6.40;1.45;;;;;;;19.42;34.59;99480.94;5050057;28;20045;-66
2022/05/30 07:34:13;;;;;;;3.28;1.65;;;;;;;19.47;34.30;99489.72;5050377;28;20075;-68
2022/05/30 07:36:59;;;;;;;1.88;1.50;;;;;;;19.44;33.40;99492.97;5050477;28;20128;-66
2022/05/30 07:39:43;;;;;;;2.55;1.40;;;;;;;19.44;34.34;99502.91;5035524;28;20045;-67
2022/05/30 07:42:28;;;;;;;2.95;1.50;;;;;;;19.55;33.37;99498.19;5032694;28;20498;-66
2022/05/30 07:45:19;;;;;;;3.03;1.67;;;;;;;19.57;32.38;99504.06;5026985;28;20484;-67
2022/05/30 07:48:06;;;;;;;2.28;1.30;;;;;;;19.46;31.54;99492.69;5032739;28;20103;-68
2022/05/30 07:50:57;;;;;;;2.67;1.30;;;;;;;19.41;31.82;99500.81;5050566;28;20044;-67
2022/05/30 07:53:45;;;;;;;6.05;1.40;;;;;;;19.43;33.02;99510.19;5028916;28;20437;-66
2022/05/30 07:56:31;;;;;;;5.10;1.80;;;;;;;19.49;32.63;99506.31;5049844;28;20134;-67
2022/05/30 07:58:58;;;;;;;2.28;1.48;;;;;;;19.57;33.14;99506.75;5049983;28;20494;-66
2022/05/30 08:01:24;;;;;;;3.38;1.60;;;;;;;19.64;33.26;99509.84;5050012;28;20049;-66
2022/05/30 08:03:51;;;;;;;2.67;1.38;;;;;;;19.62;31.97;99512.84;5032437;28;20454;-66
2022/05/30 08:06:37;;;;;;;1.63;1.30;;;;;;;19.58;32.14;99511.03;5032153;28;20488;-66
2022/05/30 08:09:21;;;;;;;1.98;1.23;;;;;;;19.60;30.40;99512.34;5053762;28;20041;-65
2022/05/30 08:12:00;;;;;;;3.55;1.30;;;;;;;19.69;32.24;99516.00;5036294;28;20423;-66
2022/05/30 08:14:56;;;;;;;2.85;1.50;;;;;;;19.66;33.00;99521.16;5052884;28;20143;-66
2022/05/30 08:17:24;;;;;;;8.23;1.83;;;;;;;19.70;32.75;99531.00;5035955;28;20045;-65
2022/05/30 08:19:51;;;;;;;2.33;1.80;;;;;;;19.72;33.65;99530.75;5053974;28;20053;-70
2022/05/30 08:22:22;;;;;;;4.68;1.55;;;;;;;19.75;33.67;99535.53;5035929;28;20183;-68
2022/05/30 08:24:48;;;;;;;4.63;1.80;;;;;;;19.71;33.10;99545.28;5053803;28;20041;-67
2022/05/30 08:27:16;;;;;;;2.53;1.50;;;;;;;19.61;32.62;99532.75;5053785;28;20561;-66
2022/05/30 08:29:47;;;;;;;2.55;1.63;;;;;;;19.56;32.41;99540.91;5020047;28;20498;-67
2022/05/30 08:32:13;;;;;;;4.68;1.73;;;;;;;19.45;32.44;99542.16;5035494;28;20057;-67
2022/05/30 08:34:59;;;;;;;2.50;1.38;;;;;;;19.51;33.15;99547.16;5053303;28;20501;-67
2022/05/30 08:37:30;;;;;;;4.38;1.52;;;;;;;19.38;33.59;99547.09;5035502;28;20159;-66
2022/05/30 08:42:46;;;;;;;3.03;1.60;;;;;;;19.12;33.89;99555.53;5035548;28;20044;-67
2022/05/30 08:45:17;;;;;;;6.32;1.60;;;;;;;19.27;33.50;99557.22;5035762;28;20098;-67
2022/05/30 08:48:20;;;;;;;3.10;1.60;;;;;;;19.39;31.96;99552.19;5051600;28;20487;-66
2022/05/30 08:51:15;;;;;;;3.22;1.52;;;;;;;19.34;32.38;99556.84;5003288;28;20123;-66
2022/05/30 08:54:08;;;;;;;2.78;1.50;;;;;;;19.44;32.47;99549.44;4978058;28;20056;-65
2022/05/30 08:56:40;;;;;;;2.03;1.50;;;;;;;19.46;30.71;99549.13;5035346;28;20057;-66
2022/05/30 08:59:18;;;;;;;1.83;1.30;;;;;;;19.40;31.64;99550.31;5052934;28;20069;-69
2022/05/30 09:01:50;;;;;;;3.03;1.90;;;;;;;19.47;31.65;99551.53;5053153;28;20107;-67
2022/05/30 09:05:00;;;;;;;5.05;1.70;;;;;;;19.48;32.46;99544.28;5007582;28;20043;-67
2022/05/30 09:07:30;;;;;;;1.70;1.50;;;;;;;19.50;31.89;99548.25;5035209;28;20090;-67
2022/05/30 09:10:37;;;;;;;3.55;1.60;;;;;;;19.49;32.22;99548.53;5002104;28;20041;-67
2022/05/30 09:13:19;;;;;;;4.45;1.50;;;;;;;19.24;32.42;99553.22;5019156;28;20111;-66
2022/05/30 09:16:29;;;;;;;4.88;1.50;;;;;;;19.34;33.48;99551.47;4971419;28;20049;-65
2022/05/30 09:19:00;;;;;;;3.00;1.73;;;;;;;19.44;32.10;99546.75;4955376;28;20046;-67
2022/05/30 09:21:29;;;;;;;5.35;3.40;;;;;;;19.40;31.75;99536.84;4987897;28;20392;-66
2022/05/30 09:23:56;;;;;;;4.03;1.63;;;;;;;19.49;31.67;99535.09;5031160;28;20051;-66
2022/05/30 09:26:24;;;;;;;2.38;1.50;;;;;;;19.59;30.84;99539.50;5032541;28;20037;-66
2022/05/30 09:29:13;;;;;;;5.20;1.60;;;;;;;19.65;31.00;99536.50;5031062;28;20064;-67
2022/05/30 09:32:14;;;;;;;2.55;1.48;;;;;;;19.75;30.69;99540.91;5032314;28;20052;-66
2022/05/30 09:35:30;;;;;;;3.17;1.60;;;;;;;19.73;32.65;99533.13;4985455;28;20057;-66
2022/05/30 09:38:21;;;;;;;4.45;1.70;;;;;;;19.61;31.05;99540.03;5032733;28;20049;-67
2022/05/30 09:41:06;;;;;;;2.35;1.48;;;;;;;19.43;31.04;99544.34;5031116;28;20132;-67
2022/05/30 09:43:56;;;;;;;4.22;1.58;;;;;;;19.38;31.92;99545.19;5032160;28;20406;-65
2022/05/30 09:46:34;;;;;;;6.03;1.60;;;;;;;19.25;32.23;99552.13;5031050;28;20049;-67
2022/05/30 09:49:43;;;;;;;1.85;1.60;;;;;;;19.20;32.61;99548.69;4971022;28;20547;-66
2022/05/30 09:52:29;;;;;;;3.83;2.63;;;;;;;19.31;32.90;99557.41;4970962;28;20519;-66
2022/05/30 09:54:59;;;;;;;3.45;2.00;;;;;;;19.47;33.19;99556.09;5003525;28;20137;-66
2022/05/30 09:57:31;;;;;;;6.47;1.98;;;;;;;19.71;32.75;99547.97;5031015;28;20045;-66
2022/05/30 10:00:14;;;;;;;7.40;1.95;;;;;;;19.82;32.34;99544.00;5031936;28;20049;-66
2022/05/30 10:02:45;;;;;;;7.32;1.85;;;;;;;19.77;32.98;99540.63;5030798;28;20207;-67
2022/05/30 10:05:20;;;;;;;2.38;1.95;;;;;;;19.67;32.05;99542.38;5030920;28;20042;-66
2022/05/30 10:07:58;;;;;;;3.33;2.10;;;;;;;19.71;32.10;99551.47;5030635;28;20041;-65
2022/05/30 10:10:50;;;;;;;3.63;2.00;;;;;;;19.80;32.57;99543.53;5031467;28;20050;-68
2022/05/30 10:13:34;;;;;;;3.63;1.98;;;;;;;19.73;31.43;99538.50;5030479;28;20068;-67
2022/05/30 10:16:32;;;;;;;4.43;1.90;;;;;;;19.42;31.77;99516.66;4990676;28;20077;-66
2022/05/30 10:19:03;;;;;;;4.07;1.70;;;;;;;19.42;32.56;99529.31;4998261;28;20045;-67
2022/05/30 10:28:53;;;;;;;4.30;1.63;;;;;;;19.01;32.43;99522.63;4935195;29;20084;-67
2022/05/30 10:31:49;;;;;;;2.40;1.65;;;;;;;19.06;32.81;99527.16;5013116;28;20041;-68
2022/05/30 10:35:09;;;;;;;1.77;1.55;;;;;;;19.10;33.43;99519.31;5027600;28;20049;-68
2022/05/30 10:37:44;;;;;;;2.92;1.58;;;;;;;19.20;33.22;99527.19;4914149;29;20501;-65
2022/05/30 10:40:37;;;;;;;3.97;1.73;;;;;;;19.32;33.08;99521.38;4911445;29;20103;-68
2022/05/30 10:43:20;;;;;;;3.47;1.95;;;;;;;19.47;32.69;99513.91;4999364;28;20049;-69
2022/05/30 10:45:50;;;;;;;6.40;2.10;;;;;;;19.71;32.17;99521.88;5013922;28;20045;-69
2022/05/30 10:48:24;;;;;;;5.95;1.90;;;;;;;19.77;32.28;99522.59;4994777;28;20335;-67
2022/05/30 10:51:05;;;;;;;6.13;2.05;;;;;;;19.85;32.16;99515.72;5030196;28;20067;-67
2022/05/30 10:53:53;;;;;;;4.85;1.73;;;;;;;19.95;31.68;99518.25;5028764;28;20041;-68
2022/05/30 10:56:36;;;;;;;5.68;1.60;;;;;;;20.05;30.56;99517.25;5029886;28;20045;-67
2022/05/30 10:59:21;;;;;;;2.65;1.73;;;;;;;20.09;30.63;99510.19;5012065;28;20037;-66
2022/05/30 11:01:50;;;;;;;2.83;1.70;;;;;;;20.09;30.69;99502.94;5012760;28;20107;-67
2022/05/30 11:04:41;;;;;;;3.93;1.80;;;;;;;20.08;30.26;99504.00;5029154;28;20050;-66
2022/05/30 11:07:17;;;;;;;2.40;1.70;;;;;;;19.95;29.84;99500.22;5030589;28;20805;-68
2022/05/30 11:09:52;;;;;;;4.60;2.05;;;;;;;19.87;30.14;99492.81;5011772;28;20043;-70
2022/05/30 11:12:29;;;;;;;5.38;2.00;;;;;;;19.93;30.60;99502.38;5013124;28;20048;-70
2022/05/30 11:15:04;;;;;;;6.57;2.17;;;;;;;19.90;31.13;99489.53;5012392;28;20060;-69
2022/05/30 11:17:56;;;;;;;2.10;1.90;;;;;;;19.74;31.93;99458.63;5031234;28;20046;-68
2022/05/30 11:20:34;;;;;;;3.90;1.80;;;;;;;19.95;30.86;99485.97;5023949;28;20107;-68
2022/05/30 11:23:01;;;;;;;2.60;1.63;;;;;;;19.93;29.86;99477.38;5019072;28;20140;-67
2022/05/30 11:25:55;;;;;;;4.57;1.88;;;;;;;19.91;29.90;99475.00;5011626;28;20573;-67
2022/05/30 11:28:45;;;;;;;3.33;2.15;;;;;;;19.96;30.27;99476.78;5024546;28;20192;-68
2022/05/30 11:31:17;;;;;;;2.55;1.80;;;;;;;19.98;30.37;99490.75;5025976;28;20502;-68
2022/05/30 11:34:05;;;;;;;2.33;1.90;;;;;;;19.93;30.92;99472.78;5038584;28;20049;-67
2022/05/30 11:36:37;;;;;;;4.97;1.98;;;;;;;19.91;30.00;99469.63;5015200;28;20048;-71
2022/05/30 11:39:15;;;;;;;4.50;1.75;;;;;;;19.85;30.37;99470.78;5026818;28;20048;-68
2022/05/30 11:41:47;;;;;;;4.18;1.63;;;;;;;19.80;30.13;99460.13;5024189;28;20050;-68
2022/05/30 11:44:34;;;;;;;4.38;3.30;;;;;;;19.74;31.06;99458.63;5014476;28;20060;-69
2022/05/30 11:47:37;;;;;;;4.93;2.88;;;;;;;19.73;30.59;99473.94;5014625;28;20054;-69
2022/05/30 11:50:10;;;;;;;3.92;2.38;;;;;;;19.69;30.66;99459.50;5012725;28;20140;-67
2022/05/30 11:53:13;;;;;;;1.98;1.65;;;;;;;19.75;30.15;99457.53;5012427;28;20045;-68
2022/05/30 11:56:07;;;;;;;2.92;1.98;;;;;;;19.74;29.59;99456.75;5012206;28;20046;-69
2022/05/30 11:58:44;;;;;;;3.17;1.80;;;;;;;19.69;29.80;99451.44;5029631;28;20135;-68
2022/05/30 12:01:11;;;;;;;2.97;1.52;;;;;;;19.70;30.09;99441.47;5033476;28;20038;-68
2022/05/30 12:04:02;;;;;;;4.45;2.25;;;;;;;19.76;30.52;99434.13;5032723;28;20041;-67
2022/05/30 12:06:42;;;;;;;5.90;1.98;;;;;;;19.80;30.95;99433.25;5016354;28;20048;-68
2022/05/30 12:09:19;;;;;;;9.05;2.70;;;;;;;19.85;31.03;99443.88;5032229;28;20053;-68
2022/05/30 12:11:57;;;;;;;5.97;2.10;;;;;;;19.88;31.30;99442.50;5031909;28;20045;-68
2022/05/30 12:14:41;;;;;;;4.18;2.20;;;;;;;19.85;31.04;99441.19;5048193;28;20148;-68
2022/05/30 12:23:47;;;;;;;5.68;2.50;;;;;;;19.81;30.72;99436.72;5053100;28;20063;-67
2022/05/30 12:23:48;;;;;;;5.57;2.00;;;;;;;19.88;30.70;99434.44;5007581;28;20095;-67
2022/05/30 12:26:15;;;;;;;6.05;2.22;;;;;;;19.84;30.75;99428.84;5052496;28;20101;-67
2022/05/30 12:28:40;;;;;;;5.05;2.22;;;;;;;19.77;31.04;99439.22;5051978;28;20072;-67
2022/05/30 12:31:07;;;;;;;3.92;2.35;;;;;;;19.70;31.29;99434.19;5052568;28;20504;-67
2022/05/30 12:33:33;;;;;;;3.58;2.30;;;;;;;19.67;31.22;99437.50;5052399;28;20083;-67
2022/05/30 12:36:10;;;;;;;4.93;2.20;;;;;;;19.64;30.97;99437.25;5051273;28;20071;-69
2022/05/30 12:38:56;;;;;;;6.13;2.53;;;;;;;19.65;30.74;99434.31;5052355;28;20045;-66